Time;durP1;ratioP1;P1;durP2;ratioP2;P2;SDS_P1;SDS_P2;PMS_P1;PMS_P2;Temp;Humidity;BMP_temperature;BMP_pressure;BME280_temperature;BME280_humidity;BME280_pressure;Samples;Min_cycle;Max_cycle;Signal;HPM_P1;HPM_P2
2021/12/17 00:00:59;;;;;;;40.60;35.67;;;9.40;1.00;11.30;102694.00;;;;5036711;28;20460;-74
2021/12/17 00:03:36;;;;;;;40.90;34.23;;;9.30;1.00;11.30;102706.00;;;;5038396;28;20532;-76
2021/12/17 00:06:29;;;;;;;41.13;34.70;;;9.30;1.00;11.30;102697.00;;;;5036036;28;20475;-74
2021/12/17 00:08:59;;;;;;;42.73;34.00;;;9.40;1.00;11.30;102690.00;;;;5024623;28;20473;-76
2021/12/17 00:11:27;;;;;;;37.60;32.60;;;9.40;1.00;11.30;102694.00;;;;5037916;28;20525;-75
2021/12/17 00:13:57;;;;;;;39.13;34.67;;;9.40;1.00;11.30;102694.00;;;;5049769;28;20464;-75
2021/12/17 00:16:32;;;;;;;41.37;33.60;;;9.40;1.00;11.40;102693.00;;;;5027686;28;20462;-75
2021/12/17 00:19:13;;;;;;;43.67;34.40;;;9.40;1.00;11.40;102670.00;;;;5022345;28;20461;-76
2021/12/17 00:49:19;;;;;;;35.17;31.33;;;9.40;1.00;11.30;102698.00;;;;4991387;28;20493;-76
2021/12/17 00:51:56;;;;;;;42.00;31.70;;;9.40;1.00;11.30;102699.00;;;;5014167;28;20458;-76
2021/12/17 00:54:33;;;;;;;37.23;32.63;;;9.30;1.00;11.30;102691.00;;;;5009444;28;20460;-75
2021/12/17 00:57:12;;;;;;;36.53;31.87;;;9.30;1.00;11.30;102698.00;;;;5007345;28;20497;-76
2021/12/17 00:59:47;;;;;;;32.67;29.17;;;9.40;1.00;11.30;102685.00;;;;5012243;28;20473;-76
2021/12/17 01:02:21;;;;;;;35.40;31.07;;;9.40;1.00;11.30;102687.00;;;;5007544;28;20487;-77
2021/12/17 01:04:54;;;;;;;35.90;29.87;;;9.40;1.00;11.30;102706.00;;;;5007469;28;20473;-77
2021/12/17 01:07:27;;;;;;;34.80;31.10;;;9.40;1.00;11.30;102697.00;;;;5003660;28;20588;-76
2021/12/17 01:10:00;;;;;;;37.33;30.80;;;9.30;1.00;11.30;102696.00;;;;4998314;28;21251;-76
2021/12/17 01:12:30;;;;;;;36.97;31.80;;;9.40;1.00;11.30;102688.00;;;;5025729;28;20446;-75
2021/12/17 01:15:19;;;;;;;37.53;31.97;;;9.30;1.00;11.30;102696.00;;;;5017810;28;20474;-75
2021/12/17 01:18:16;;;;;;;35.20;31.37;;;9.30;1.00;11.20;102687.00;;;;5010988;28;20498;-74
2021/12/17 01:24:13;;;;;;;33.67;29.10;;;9.40;1.00;11.20;102693.00;;;;5030551;28;20506;-76
2021/12/17 01:36:26;;;;;;;33.23;26.90;;;9.40;1.00;11.20;102707.00;;;;5001983;28;20553;-76
2021/12/17 01:42:00;;;;;;;26.20;23.53;;;9.40;1.00;11.20;102705.00;;;;5001389;28;20960;-79
2021/12/17 01:44:29;;;;;;;26.90;23.53;;;9.40;1.00;11.10;102700.00;;;;5006986;28;20528;-75
2021/12/17 01:46:57;;;;;;;24.73;22.20;;;9.30;1.00;11.10;102702.00;;;;5009499;28;20516;-77
2021/12/17 02:00:50;;;;;;;23.10;20.70;;;9.50;1.00;11.20;102706.00;;;;5013106;28;20465;-74
2021/12/17 02:03:19;;;;;;;24.83;22.03;;;9.50;1.00;11.30;102708.00;;;;5011145;28;20454;-74
2021/12/17 02:05:48;;;;;;;24.20;20.77;;;9.50;1.00;11.30;102692.00;;;;5009470;28;20473;-75
2021/12/17 02:08:18;;;;;;;24.23;21.73;;;9.50;1.00;11.30;102701.00;;;;5013894;28;20898;-75
2021/12/17 02:11:26;;;;;;;23.57;21.03;;;9.50;1.00;11.30;102698.00;;;;5012916;28;20448;-75
2021/12/17 02:19:48;;;;;;;26.57;22.53;;;9.50;1.00;11.40;102680.00;;;;5000991;28;20509;-75
2021/12/17 02:31:01;;;;;;;26.07;23.27;;;9.50;1.00;11.30;102682.00;;;;5007705;28;20513;-75
2021/12/17 02:33:30;;;;;;;24.60;21.90;;;9.40;1.00;11.30;102682.00;;;;5006635;28;20458;-75
2021/12/17 02:36:00;;;;;;;25.70;22.53;;;9.50;1.00;11.30;102681.00;;;;5010129;28;20508;-75
2021/12/17 02:38:36;;;;;;;25.60;21.13;;;9.50;1.00;11.30;102684.00;;;;5011046;28;20457;-76
2021/12/17 02:47:19;;;;;;;25.10;22.27;;;9.50;1.00;11.30;102688.00;;;;5010351;28;20508;-76
2021/12/17 02:49:49;;;;;;;25.30;21.73;;;9.50;1.00;11.30;102639.00;;;;5010085;28;20474;-76
2021/12/17 02:52:19;;;;;;;26.80;21.53;;;9.50;1.00;11.30;102680.00;;;;5009811;28;20882;-76
2021/12/17 02:54:49;;;;;;;27.30;21.23;;;9.50;1.00;11.30;102675.00;;;;5008095;28;20488;-76
2021/12/17 02:57:17;;;;;;;25.10;21.90;;;9.50;1.00;11.40;102674.00;;;;5020906;28;20516;-76
2021/12/17 02:59:46;;;;;;;25.37;22.27;;;9.40;1.00;11.30;102678.00;;;;5028391;28;20521;-76
2021/12/17 03:02:14;;;;;;;26.07;22.13;;;9.50;1.00;11.30;102682.00;;;;5041222;28;20441;-76
2021/12/17 03:04:43;;;;;;;23.73;21.03;;;9.40;1.00;11.30;102686.00;;;;5040906;28;20466;-76
2021/12/17 03:07:14;;;;;;;23.67;20.93;;;9.60;1.00;11.30;102681.00;;;;5040910;28;20518;-75
2021/12/17 03:10:01;;;;;;;23.57;20.57;;;9.40;1.00;11.40;102696.00;;;;5043814;28;20536;-75
2021/12/17 03:12:37;;;;;;;26.57;22.20;;;9.40;1.00;11.40;102684.00;;;;5041815;28;20493;-75
2021/12/17 03:15:16;;;;;;;22.53;20.10;;;9.40;1.00;11.40;102681.00;;;;5021416;28;20454;-75
2021/12/17 03:18:16;;;;;;;23.67;20.67;;;9.30;1.00;11.40;102695.00;;;;5032943;28;20948;-75
2021/12/17 03:23:39;;;;;;;23.20;20.40;;;9.40;1.00;11.40;102696.00;;;;5005395;28;20458;-76
2021/12/17 03:26:11;;;;;;;22.90;20.33;;;9.40;1.00;11.40;102697.00;;;;5007802;28;20998;-75
2021/12/17 03:28:46;;;;;;;24.00;19.93;;;9.40;1.00;11.40;102697.00;;;;5013777;28;20817;-75
2021/12/17 03:31:16;;;;;;;24.70;20.50;;;9.40;1.00;11.40;102691.00;;;;5009116;28;20946;-76
2021/12/17 03:33:50;;;;;;;25.20;20.27;;;9.40;1.00;11.40;102690.00;;;;5011891;28;20453;-75
2021/12/17 03:36:21;;;;;;;23.10;20.20;;;9.40;1.00;11.30;102687.00;;;;5008342;28;20508;-75
2021/12/17 03:38:51;;;;;;;23.13;20.67;;;9.40;1.00;11.40;102672.00;;;;5012412;28;21038;-75
2021/12/17 03:41:24;;;;;;;23.07;20.67;;;9.40;1.00;11.40;102675.00;;;;5013181;28;20984;-75
2021/12/17 03:44:02;;;;;;;24.43;20.40;;;9.40;1.00;11.30;102668.00;;;;5008440;28;20446;-75
2021/12/17 03:46:53;;;;;;;21.10;18.80;;;9.40;1.00;11.30;102672.00;;;;5015866;28;20474;-74
2021/12/17 03:49:23;;;;;;;23.60;19.47;;;9.40;1.00;11.30;102656.00;;;;5006998;28;20474;-74
2021/12/17 03:52:04;;;;;;;21.83;19.07;;;9.40;1.00;11.30;102634.00;;;;5007092;28;20474;-75
2021/12/17 03:54:37;;;;;;;24.37;20.67;;;9.40;1.00;11.30;102613.00;;;;4993396;28;20453;-74
2021/12/17 03:57:10;;;;;;;24.43;21.10;;;9.30;1.00;11.30;102642.00;;;;5016802;28;20446;-75
2021/12/17 03:59:45;;;;;;;23.70;20.10;;;9.30;1.00;11.30;102650.00;;;;5011837;28;20527;-74
2021/12/17 04:02:15;;;;;;;25.47;20.20;;;9.30;1.00;11.30;102602.00;;;;5006438;28;20462;-75
2021/12/17 04:04:44;;;;;;;24.93;20.13;;;9.30;1.00;11.20;102643.00;;;;5012061;28;20848;-75
2021/12/17 04:07:31;;;;;;;22.50;20.10;;;9.30;1.00;11.20;102653.00;;;;5019309;28;20474;-75
2021/12/17 04:10:10;;;;;;;24.13;20.40;;;9.30;1.00;11.20;102609.00;;;;5015617;28;20480;-75
2021/12/17 04:12:51;;;;;;;27.83;21.40;;;9.20;1.00;11.10;102650.00;;;;5031357;28;20839;-75
2021/12/17 04:15:30;;;;;;;24.37;21.13;;;9.10;1.00;11.10;102642.00;;;;5029788;28;20496;-73
2021/12/17 04:17:59;;;;;;;23.30;19.60;;;9.00;1.00;11.00;102653.00;;;;5018450;28;20465;-74
2021/12/17 04:20:27;;;;;;;23.40;21.10;;;9.10;1.00;10.90;102640.00;;;;5013368;28;20457;-74
2021/12/17 04:22:55;;;;;;;23.90;21.30;;;9.00;1.00;10.90;102643.00;;;;5012609;28;21022;-74
2021/12/17 04:25:23;;;;;;;26.63;21.27;;;9.00;1.00;10.80;102645.00;;;;5013901;28;20906;-74
2021/12/17 04:27:52;;;;;;;22.70;20.17;;;9.00;1.00;10.70;102647.00;;;;5012045;28;20544;-74
2021/12/17 04:30:22;;;;;;;26.30;20.30;;;9.10;1.00;10.70;102648.00;;;;5014118;28;20480;-74
2021/12/17 04:32:52;;;;;;;26.63;21.20;;;9.10;1.00;10.70;102646.00;;;;5006677;28;20525;-74
2021/12/17 04:35:20;;;;;;;24.60;19.83;;;9.00;1.00;10.70;102619.00;;;;5012681;28;20516;-74
2021/12/17 04:37:52;;;;;;;25.00;20.47;;;9.00;1.00;10.70;102634.00;;;;5012413;28;20489;-74
2021/12/17 04:40:24;;;;;;;23.33;20.67;;;9.00;1.00;10.80;102630.00;;;;5010481;28;20458;-74
2021/12/17 04:43:02;;;;;;;25.40;19.93;;;9.00;1.00;10.70;102635.00;;;;5011408;28;20516;-74
2021/12/17 04:45:43;;;;;;;22.20;19.90;;;8.90;1.00;10.70;102624.00;;;;5009202;28;20480;-75
2021/12/17 04:59:26;;;;;;;22.43;19.77;;;8.90;1.00;10.60;102633.00;;;;5011076;28;21021;-75
2021/12/17 05:02:01;;;;;;;25.07;19.30;;;8.90;1.00;10.60;102643.00;;;;5007005;28;20480;-75
2021/12/17 05:04:35;;;;;;;21.50;19.20;;;8.80;1.00;10.60;102641.00;;;;5008967;28;20972;-75
2021/12/17 05:07:07;;;;;;;21.20;18.90;;;8.80;1.00;10.60;102644.00;;;;5010898;28;20478;-74
2021/12/17 05:09:44;;;;;;;25.00;20.80;;;8.80;1.00;10.60;102642.00;;;;5025604;28;20477;-75
2021/12/17 05:20:44;;;;;;;17.93;15.23;;;8.70;1.00;10.40;102625.00;;;;5012374;28;20450;-75
2021/12/17 05:23:13;;;;;;;19.23;16.17;;;8.70;1.00;10.30;102643.00;;;;5006985;28;20997;-75
2021/12/17 05:25:41;;;;;;;21.47;15.73;;;8.80;1.00;10.40;102650.00;;;;5009915;28;20480;-74
2021/12/17 05:28:10;;;;;;;18.37;15.50;;;8.70;1.00;10.40;102657.00;;;;5009040;28;20450;-74
2021/12/17 05:30:45;;;;;;;19.33;15.70;;;8.70;1.00;10.40;102651.00;;;;5011179;28;20449;-73
2021/12/17 05:33:16;;;;;;;20.80;17.60;;;8.70;1.00;10.30;102659.00;;;;5011803;28;20451;-73
2021/12/17 05:35:44;;;;;;;20.00;14.90;;;8.70;1.00;10.50;102652.00;;;;5010286;28;20556;-73
2021/12/17 05:38:15;;;;;;;16.10;14.03;;;8.80;1.00;10.60;102655.00;;;;5011208;28;20481;-74
2021/12/17 05:40:45;;;;;;;19.67;16.00;;;8.80;1.00;10.60;102667.00;;;;5008752;28;20516;-73
2021/12/17 05:43:15;;;;;;;26.00;16.97;;;8.80;1.00;10.70;102633.00;;;;5017824;28;20439;-73
2021/12/17 05:46:02;;;;;;;20.97;17.77;;;8.80;1.00;10.70;102663.00;;;;5025566;28;20478;-73
2021/12/17 05:48:31;;;;;;;10.10;8.60;;;8.80;1.00;10.60;102654.00;;;;5053214;28;20464;-72
2021/12/17 05:51:03;;;;;;;17.07;13.60;;;8.80;1.00;10.70;102659.00;;;;5032682;28;20458;-76
2021/12/17 05:53:33;;;;;;;13.57;12.27;;;8.80;1.00;10.70;102651.00;;;;5012404;28;20819;-77
2021/12/17 05:56:04;;;;;;;18.50;12.63;;;8.90;1.00;10.60;102649.00;;;;5010302;28;20512;-76
2021/12/17 05:58:44;;;;;;;14.00;12.60;;;8.90;1.00;10.50;102656.00;;;;5009888;28;20468;-75
2021/12/17 06:01:12;;;;;;;18.70;12.77;;;8.80;1.00;10.60;102662.00;;;;5011850;28;20474;-76
2021/12/17 06:03:53;;;;;;;18.00;12.00;;;8.80;1.00;10.60;102670.00;;;;5006963;28;20472;-74
2021/12/17 06:06:30;;;;;;;19.20;14.13;;;8.80;1.00;10.60;102646.00;;;;5010893;28;20509;-75
2021/12/17 06:09:04;;;;;;;21.83;13.57;;;8.80;1.00;217.30;161269.00;;;;5005048;28;20814;-76
2021/12/17 06:11:34;;;;;;;23.80;14.07;;;8.90;1.00;10.60;102666.00;;;;5003414;28;20467;-75
2021/12/17 06:14:03;;;;;;;15.53;13.90;;;8.90;1.00;10.60;102663.00;;;;5010299;28;20513;-75
2021/12/17 06:16:37;;;;;;;16.80;15.10;;;8.90;1.00;10.60;102662.00;;;;5009913;28;21021;-75
2021/12/17 06:19:13;;;;;;;19.40;16.80;;;8.90;1.00;10.60;102649.00;;;;5012287;28;20469;-76
2021/12/17 06:21:41;;;;;;;15.80;14.10;;;8.90;1.00;10.50;102644.00;;;;5003933;28;22274;-75
2021/12/17 06:24:10;;;;;;;16.93;13.90;;;8.90;1.00;10.50;102655.00;;;;5009740;28;20830;-76
2021/12/17 06:26:39;;;;;;;21.33;16.90;;;8.80;1.00;10.50;102641.00;;;;4998315;28;20538;-75
2021/12/17 06:29:08;;;;;;;22.93;16.43;;;8.90;1.00;10.50;102671.00;;;;5009827;28;20865;-75
2021/12/17 06:31:37;;;;;;;21.50;17.53;;;8.90;1.00;10.50;102664.00;;;;5005283;28;20530;-75
2021/12/17 06:34:05;;;;;;;14.80;13.23;;;8.90;1.00;10.40;102610.00;;;;5012226;28;20823;-76
2021/12/17 06:36:36;;;;;;;15.50;11.90;;;8.90;1.00;10.40;102671.00;;;;5008182;28;20523;-76
2021/12/17 06:39:05;;;;;;;18.60;15.00;;;8.90;1.00;10.40;102658.00;;;;5014943;28;20460;-76
2021/12/17 06:41:38;;;;;;;17.23;15.43;;;8.90;1.00;10.50;102648.00;;;;5015296;28;20453;-76
2021/12/17 06:44:10;;;;;;;19.00;16.03;;;8.80;1.00;10.50;102659.00;;;;5013558;28;20942;-75
2021/12/17 06:46:52;;;;;;;16.73;14.90;;;8.80;1.00;10.40;102661.00;;;;5003537;28;20566;-75
2021/12/17 06:49:26;;;;;;;10.60;9.60;;;8.80;1.00;10.20;102652.00;;;;5009030;28;20469;-74
2021/12/17 06:55:09;;;;;;;22.63;14.97;;;8.80;1.00;10.20;102648.00;;;;5011016;28;20465;-74
2021/12/17 07:10:56;;;;;;;13.93;12.53;;;8.70;1.00;10.10;102648.00;;;;5002245;28;20465;-74
2021/12/17 07:21:58;;;;;;;14.03;12.63;;;8.70;1.00;10.10;102655.00;;;;5027253;28;20484;-73
2021/12/17 07:33:15;;;;;;;15.87;12.30;;;8.70;1.00;10.30;102674.00;;;;5001125;28;20446;-75
2021/12/17 07:36:11;;;;;;;19.00;12.60;;;8.80;1.00;10.40;102681.00;;;;5023781;28;21037;-77
2021/12/17 07:38:46;;;;;;;13.80;11.60;;;8.80;1.00;10.40;102667.00;;;;5011931;28;20450;-75
2021/12/17 07:41:43;;;;;;;12.40;11.10;;;8.80;1.00;10.40;102659.00;;;;5012452;28;20477;-76
2021/12/17 07:44:32;;;;;;;15.43;12.57;;;8.90;1.00;10.50;102660.00;;;;4994214;28;20481;-75
2021/12/17 07:47:21;;;;;;;13.20;11.90;;;8.90;1.00;10.50;102663.00;;;;5014714;28;20466;-75
2021/12/17 07:50:16;;;;;;;13.30;12.10;;;8.90;1.00;10.60;102672.00;;;;5009053;28;20557;-76
2021/12/17 07:53:08;;;;;;;13.83;12.17;;;8.90;1.00;10.60;102666.00;;;;5012675;28;20462;-76
2021/12/17 07:55:43;;;;;;;15.57;12.70;;;8.90;1.00;10.60;102672.00;;;;5015180;28;20564;-75
2021/12/17 07:58:18;;;;;;;13.83;12.40;;;9.00;1.00;10.60;102654.00;;;;5015917;28;20465;-77
2021/12/17 08:00:47;;;;;;;13.33;12.03;;;9.00;1.00;10.60;102617.00;;;;5020541;28;20458;-73
2021/12/17 08:03:16;;;;;;;13.47;12.03;;;9.10;1.00;10.70;102670.00;;;;5036916;28;20433;-74
2021/12/17 08:06:12;;;;;;;13.67;12.30;;;9.10;1.00;10.70;102667.00;;;;5006308;28;20979;-76
2021/12/17 08:09:00;;;;;;;12.30;10.80;;;9.10;1.00;10.70;102675.00;;;;5011146;28;20446;-75
2021/12/17 08:11:31;;;;;;;12.37;11.20;;;9.10;1.00;10.70;102672.00;;;;5006737;28;20557;-74
2021/12/17 08:14:01;;;;;;;11.97;10.73;;;9.10;1.00;10.80;102696.00;;;;5012041;28;20837;-75
2021/12/17 08:16:37;;;;;;;13.53;11.17;;;9.20;1.00;10.80;102693.00;;;;5008455;28;20473;-75
2021/12/17 08:24:47;;;;;;;16.07;11.97;;;9.40;1.00;11.00;102702.00;;;;5010286;28;20460;-74
2021/12/17 08:27:42;;;;;;;13.67;12.10;;;9.50;1.00;11.00;102710.00;;;;5023435;28;21210;-75
2021/12/17 08:30:25;;;;;;;20.33;11.70;;;9.50;1.00;11.10;102722.00;;;;5004853;28;20913;-75
2021/12/17 08:33:00;;;;;;;15.40;11.60;;;9.50;1.00;11.10;102728.00;;;;5004709;28;20654;-75
2021/12/17 08:35:29;;;;;;;18.30;11.87;;;9.40;1.00;11.10;102727.00;;;;5010766;28;20983;-75
2021/12/17 08:38:05;;;;;;;20.60;12.57;;;9.40;1.00;11.10;102728.00;;;;5013249;28;20457;-76
2021/12/17 08:40:35;;;;;;;16.27;13.47;;;9.40;1.00;11.10;102689.00;;;;5010249;28;20458;-74
2021/12/17 08:43:04;;;;;;;15.83;13.23;;;9.50;1.00;11.10;102732.00;;;;5014536;28;20444;-76
2021/12/17 08:45:43;;;;;;;14.37;12.87;;;9.50;1.00;11.20;102722.00;;;;5004156;28;20484;-75
2021/12/17 08:48:32;;;;;;;17.57;15.00;;;9.50;1.00;11.20;102725.00;;;;5011059;28;20462;-74
2021/12/17 08:51:24;;;;;;;14.53;12.87;;;9.50;1.00;11.30;102718.00;;;;5012905;28;20509;-76
2021/12/17 08:53:52;;;;;;;12.90;11.60;;;9.60;1.00;11.30;102703.00;;;;5007739;28;20462;-76
2021/12/17 08:56:23;;;;;;;13.53;12.13;;;9.60;1.00;11.40;102729.00;;;;5011409;28;20477;-76
2021/12/17 08:58:53;;;;;;;12.77;11.57;;;9.60;1.00;11.30;102727.00;;;;5011642;28;21001;-76
2021/12/17 09:01:29;;;;;;;14.10;12.60;;;9.70;1.00;11.40;102729.00;;;;5011758;28;20464;-76
2021/12/17 09:03:58;;;;;;;12.10;10.90;;;9.70;1.00;11.40;102727.00;;;;5009416;28;21036;-75
2021/12/17 09:06:39;;;;;;;18.50;13.07;;;9.70;1.00;11.50;102741.00;;;;5032865;28;20497;-76
2021/12/17 09:09:07;;;;;;;14.87;12.13;;;9.70;1.00;11.50;102738.00;;;;5013937;28;20456;-76
2021/12/17 09:11:40;;;;;;;17.47;12.10;;;9.80;1.00;11.50;102743.00;;;;5013412;28;20557;-76
2021/12/17 09:14:19;;;;;;;32.43;14.60;;;9.80;1.00;11.60;102749.00;;;;5014448;28;20525;-74
2021/12/17 09:17:03;;;;;;;13.57;12.13;;;9.80;1.00;11.70;102710.00;;;;5021630;28;20460;-76
2021/12/17 09:19:36;;;;;;;18.40;12.40;;;9.90;1.00;11.60;102763.00;;;;5016133;28;20472;-75
2021/12/17 09:22:15;;;;;;;18.00;11.83;;;9.90;1.00;11.60;102760.00;;;;5016425;28;20473;-76
2021/12/17 09:24:48;;;;;;;18.27;11.90;;;10.00;1.00;11.60;102746.00;;;;5020754;28;20473;-75
2021/12/17 09:27:21;;;;;;;13.67;12.23;;;10.00;1.00;11.50;102717.00;;;;5010979;28;20461;-75
2021/12/17 09:30:21;;;;;;;13.90;11.60;;;10.00;1.00;11.60;102717.00;;;;5008717;28;21013;-75
2021/12/17 09:32:51;;;;;;;16.47;12.27;;;10.00;1.00;11.70;102759.00;;;;5012735;28;20464;-76
2021/12/17 09:35:24;;;;;;;15.30;12.10;;;10.00;1.00;11.70;102749.00;;;;5006820;28;20549;-75
2021/12/17 09:37:54;;;;;;;16.97;13.03;;;10.00;1.00;11.60;102738.00;;;;5006232;28;20989;-75
2021/12/17 09:40:23;;;;;;;14.83;13.33;;;10.00;1.00;11.50;102779.00;;;;5011795;28;20458;-75
2021/12/17 09:42:51;;;;;;;14.13;12.70;;;10.00;1.00;11.50;102775.00;;;;5016507;28;20493;-75
2021/12/17 09:45:20;;;;;;;15.03;13.00;;;10.00;1.00;11.40;102763.00;;;;5023983;28;20484;-74
2021/12/17 09:47:50;;;;;;;17.13;12.87;;;9.90;1.00;11.40;102750.00;;;;5032258;28;20462;-75
2021/12/17 09:50:22;;;;;;;14.70;13.20;;;9.90;1.00;11.30;102757.00;;;;5013618;28;20459;-75
2021/12/17 09:52:53;;;;;;;13.07;11.83;;;9.90;1.00;11.30;102761.00;;;;5015253;28;20516;-75
2021/12/17 09:55:22;;;;;;;16.00;12.83;;;9.80;1.00;11.40;102773.00;;;;5020407;28;20489;-74
2021/12/17 09:57:53;;;;;;;13.60;12.20;;;9.90;1.00;11.40;102769.00;;;;5019216;28;20461;-74
2021/12/17 10:00:26;;;;;;;17.03;13.40;;;9.90;1.00;11.20;102761.00;;;;5018578;28;20454;-76
2021/12/17 10:03:02;;;;;;;17.00;14.50;;;9.90;1.00;11.30;102759.00;;;;5025821;28;20460;-74
2021/12/17 10:05:35;;;;;;;17.60;13.67;;;9.90;1.00;11.30;102760.00;;;;5014691;28;20476;-75
2021/12/17 10:08:06;;;;;;;17.37;13.33;;;9.90;1.00;11.50;102756.00;;;;5011003;28;20449;-74
2021/12/17 10:10:37;;;;;;;18.20;15.70;;;10.00;1.00;11.50;102767.00;;;;5007156;28;20454;-75
2021/12/17 10:13:09;;;;;;;15.00;12.30;;;10.00;1.00;11.40;102757.00;;;;5012696;28;20469;-75
2021/12/17 10:15:39;;;;;;;13.70;12.20;;;10.00;1.00;11.40;102748.00;;;;5003887;28;20488;-75
2021/12/17 10:18:09;;;;;;;12.70;11.40;;;10.00;1.00;11.40;102751.00;;;;5013571;28;20460;-74
2021/12/17 10:20:55;;;;;;;13.73;12.30;;;10.10;1.00;11.40;102750.00;;;;5005072;28;20951;-75
2021/12/17 10:23:25;;;;;;;13.50;12.10;;;10.10;1.00;11.50;102739.00;;;;5007381;28;20449;-75
2021/12/17 10:25:54;;;;;;;13.47;11.70;;;10.10;1.00;11.60;102738.00;;;;5011202;28;20843;-75
2021/12/17 10:28:24;;;;;;;12.97;10.73;;;10.10;1.00;11.50;102727.00;;;;5006685;28;20480;-75
2021/12/17 10:30:54;;;;;;;13.10;11.80;;;10.10;1.00;11.50;102728.00;;;;5010789;28;20453;-74
2021/12/17 10:33:28;;;;;;;13.37;11.87;;;10.10;1.00;11.60;102716.00;;;;5004139;28;20449;-74
2021/12/17 10:36:03;;;;;;;13.73;11.73;;;10.10;1.00;11.50;102719.00;;;;5008712;28;20576;-74
2021/12/17 10:38:31;;;;;;;13.03;11.63;;;10.10;1.00;11.50;102725.00;;;;5004118;28;20460;-77
2021/12/17 10:41:04;;;;;;;13.13;11.73;;;10.10;1.00;11.30;102736.00;;;;5008850;28;20966;-76
2021/12/17 10:43:42;;;;;;;20.40;12.43;;;10.00;1.00;11.30;102741.00;;;;5009729;28;20872;-74
2021/12/17 10:46:24;;;;;;;20.97;13.47;;;10.00;1.00;52.70;161525.00;;;;5013059;28;20477;-75
2021/12/17 10:49:17;;;;;;;14.70;11.37;;;10.00;1.00;11.40;68795.00;;;;5012068;28;20814;-75
2021/12/17 10:51:50;;;;;;;11.67;10.47;;;10.00;1.00;52.70;161626.00;;;;5009173;28;20469;-75
2021/12/17 10:54:26;;;;;;;11.70;10.47;;;10.00;1.00;11.40;102737.00;;;;5007871;28;20452;-75
2021/12/17 10:56:56;;;;;;;12.43;9.47;;;10.00;1.00;11.40;102730.00;;;;5037630;28;20461;-75
2021/12/17 10:59:28;;;;;;;11.57;10.47;;;10.00;1.00;11.40;102715.00;;;;5031523;28;20449;-75
2021/12/17 11:02:02;;;;;;;10.43;9.43;;;10.00;1.00;11.60;102714.00;;;;5015291;28;20453;-74
2021/12/17 11:04:35;;;;;;;10.90;9.60;;;10.10;1.00;11.90;102721.00;;;;5025589;28;20503;-73
2021/12/17 11:07:06;;;;;;;13.53;9.33;;;10.30;1.00;12.30;102713.00;;;;5009820;28;20465;-74
2021/12/17 11:09:47;;;;;;;8.07;7.27;;;10.60;1.00;12.20;102720.00;;;;5009872;28;20496;-75
2021/12/17 11:12:34;;;;;;;10.53;8.40;;;10.70;1.00;12.30;102680.00;;;;4994271;28;20871;-74
2021/12/17 11:15:18;;;;;;;10.60;8.50;;;10.70;1.00;12.20;102719.00;;;;5011453;28;20474;-75
2021/12/17 11:17:49;;;;;;;10.60;8.53;;;10.70;1.00;12.30;102698.00;;;;5014956;28;20450;-75
2021/12/17 11:20:22;;;;;;;8.83;7.37;;;10.70;1.00;12.40;102713.00;;;;5006271;28;20448;-75
2021/12/17 11:22:53;;;;;;;9.03;7.93;;;10.70;1.00;12.30;102718.00;;;;5014651;28;20464;-75
2021/12/17 11:25:24;;;;;;;8.57;7.67;;;10.70;1.00;12.30;102707.00;;;;5004459;28;20472;-75
2021/12/17 11:27:54;;;;;;;9.70;8.20;;;10.70;1.00;12.30;102706.00;;;;5011124;28;20458;-75
2021/12/17 11:30:26;;;;;;;8.33;7.40;;;10.80;1.00;12.30;102696.00;;;;5010293;28;20480;-73
2021/12/17 11:32:56;;;;;;;9.00;8.10;;;10.80;1.00;12.40;102699.00;;;;5013757;28;20473;-74
2021/12/17 11:35:28;;;;;;;18.03;9.40;;;10.80;1.00;12.40;102694.00;;;;5008521;28;20477;-74
2021/12/17 11:38:03;;;;;;;11.23;8.20;;;10.90;1.00;12.40;102708.00;;;;5013537;28;20452;-75
2021/12/17 11:40:40;;;;;;;10.37;8.67;;;10.80;1.00;12.30;102710.00;;;;5018890;28;20452;-74
2021/12/17 11:43:35;;;;;;;11.40;9.00;;;10.80;1.00;12.30;102706.00;;;;5015123;28;20472;-75
2021/12/17 11:46:06;;;;;;;11.10;8.47;;;10.60;1.00;12.20;102715.00;;;;5021867;28;20481;-75
2021/12/17 11:48:36;;;;;;;11.23;8.13;;;10.50;1.00;12.20;102710.00;;;;5014423;28;20453;-75
2021/12/17 11:51:13;;;;;;;9.37;7.87;;;10.60;1.00;12.20;102717.00;;;;5005010;28;20473;-75
2021/12/17 11:53:59;;;;;;;8.90;7.53;;;10.70;1.00;12.20;102693.00;;;;5008431;28;20474;-74
2021/12/17 11:56:45;;;;;;;10.00;8.10;;;10.60;1.00;12.20;102691.00;;;;5010313;28;20509;-75
2021/12/17 11:59:37;;;;;;;9.27;7.93;;;10.70;1.00;12.30;102701.00;;;;5006200;28;20461;-74
2021/12/17 12:02:11;;;;;;;12.10;8.37;;;10.70;1.00;12.20;102698.00;;;;5025372;28;20595;-77
2021/12/17 12:04:53;;;;;;;12.23;8.60;;;10.60;1.00;12.30;102697.00;;;;5034945;28;20436;-74
2021/12/17 12:07:34;;;;;;;12.07;9.37;;;10.60;1.00;12.30;102698.00;;;;5009842;28;20522;-74
2021/12/17 12:10:24;;;;;;;12.43;9.30;;;10.60;1.00;12.20;102700.00;;;;5010734;28;20450;-74
2021/12/17 12:13:01;;;;;;;14.10;9.67;;;10.60;1.00;12.20;102690.00;;;;4994965;28;20469;-74
2021/12/17 12:15:39;;;;;;;12.37;9.43;;;10.50;1.00;12.30;102666.00;;;;5012880;28;20481;-74
2021/12/17 12:18:21;;;;;;;12.53;11.23;;;10.50;1.00;12.20;102687.00;;;;5012258;28;20449;-75
2021/12/17 12:20:58;;;;;;;12.40;11.00;;;10.50;1.00;12.20;102685.00;;;;5012776;28;20465;-75
2021/12/17 12:23:49;;;;;;;11.10;9.90;;;10.40;1.00;12.10;102697.00;;;;5013606;28;20533;-75
2021/12/17 12:26:22;;;;;;;12.00;10.67;;;10.40;1.00;12.10;102705.00;;;;5003864;28;20469;-75
2021/12/17 12:28:59;;;;;;;12.60;10.37;;;10.40;1.00;12.00;102704.00;;;;5012645;28;20481;-75
2021/12/17 12:32:02;;;;;;;12.77;10.43;;;10.30;1.00;12.00;102690.00;;;;5010430;28;20488;-75
2021/12/17 12:34:37;;;;;;;12.67;10.90;;;10.30;1.00;12.00;102690.00;;;;5007761;28;20462;-75
2021/12/17 12:37:24;;;;;;;14.73;10.70;;;10.20;1.00;12.00;102698.00;;;;5005641;28;20450;-76
2021/12/17 12:40:23;;;;;;;11.83;10.67;;;10.20;1.00;12.00;102691.00;;;;5013486;28;20551;-76
2021/12/17 12:42:55;;;;;;;15.10;11.97;;;10.20;1.00;12.00;102694.00;;;;4965257;28;20453;-76
2021/12/17 12:45:25;;;;;;;14.50;11.50;;;10.20;1.00;12.00;102699.00;;;;5009939;28;20480;-75
2021/12/17 12:48:00;;;;;;;11.87;10.63;;;10.30;1.00;12.00;102666.00;;;;5001820;28;20457;-73
2021/12/17 12:50:33;;;;;;;16.33;12.73;;;10.30;1.00;11.90;102689.00;;;;5013615;28;20449;-75
2021/12/17 12:53:09;;;;;;;13.83;10.83;;;10.30;1.00;12.00;102684.00;;;;5008589;28;20490;-74
2021/12/17 12:55:43;;;;;;;14.83;10.93;;;10.30;1.00;12.10;102682.00;;;;5013366;28;20491;-75
2021/12/17 12:58:15;;;;;;;12.10;10.83;;;10.40;1.00;12.20;102686.00;;;;5027575;28;20476;-75
2021/12/17 13:00:48;;;;;;;12.60;11.03;;;10.40;1.00;12.20;102683.00;;;;5024836;28;20438;-76
2021/12/17 13:03:19;;;;;;;13.90;11.20;;;10.40;1.00;12.40;102670.00;;;;5022222;28;20465;-74
2021/12/17 13:05:50;;;;;;;12.00;10.70;;;10.50;1.00;12.50;102672.00;;;;5016663;28;20575;-75
2021/12/17 13:08:21;;;;;;;13.20;11.77;;;10.50;1.00;12.50;102683.00;;;;5011042;28;20988;-75
2021/12/17 13:10:55;;;;;;;13.77;11.93;;;10.50;1.00;12.50;102670.00;;;;4993407;28;20455;-75
2021/12/17 13:13:31;;;;;;;12.43;10.50;;;10.50;1.00;12.60;102690.00;;;;4994408;28;20474;-76
2021/12/17 13:16:12;;;;;;;12.50;10.00;;;10.50;1.00;12.40;102685.00;;;;4994309;28;20958;-74
2021/12/17 13:21:42;;;;;;;12.47;10.53;;;10.40;1.00;12.00;102688.00;;;;4993681;28;20463;-75
2021/12/17 13:24:15;;;;;;;13.33;10.43;;;10.30;1.00;12.00;102692.00;;;;5003650;28;20532;-75
2021/12/17 13:26:48;;;;;;;13.20;11.00;;;10.20;1.00;11.90;102696.00;;;;5002095;28;20462;-75
2021/12/17 13:29:21;;;;;;;12.33;11.03;;;10.10;1.00;11.90;102662.00;;;;4993409;28;20438;-75
2021/12/17 13:31:53;;;;;;;11.63;10.43;;;10.10;1.00;11.80;102661.00;;;;4994426;28;20443;-75
2021/12/17 13:34:29;;;;;;;11.53;10.20;;;10.10;1.00;11.80;102699.00;;;;4993456;28;20463;-75
2021/12/17 13:37:11;;;;;;;12.73;10.70;;;10.00;1.00;11.80;102681.00;;;;4994072;28;20638;-75
2021/12/17 13:39:48;;;;;;;14.10;11.97;;;10.00;1.00;11.90;102692.00;;;;5012905;28;20461;-76